sensor_id;sensor_type;location;lat;lon;timestamp;P1;durP1;ratioP1;P2;durP2;ratioP2
3683;SDS011;1858;48.716;9.648;2023-08-30T00:00:34;10.23;;;7.03;;
3683;SDS011;1858;48.716;9.648;2023-08-30T00:03:20;11.40;;;7.63;;
3683;SDS011;1858;48.716;9.648;2023-08-30T00:06:06;10.50;;;7.73;;
3683;SDS011;1858;48.716;9.648;2023-08-30T00:08:53;10.57;;;7.63;;
3683;SDS011;1858;48.716;9.648;2023-08-30T00:11:41;9.80;;;7.33;;
3683;SDS011;1858;48.716;9.648;2023-08-30T00:14:27;17.47;;;9.60;;
3683;SDS011;1858;48.716;9.648;2023-08-30T00:20:20;14.70;;;10.17;;
3683;SDS011;1858;48.716;9.648;2023-08-30T00:23:07;10.13;;;7.93;;
3683;SDS011;1858;48.716;9.648;2023-08-30T00:25:53;10.53;;;8.40;;
3683;SDS011;1858;48.716;9.648;2023-08-30T00:28:39;9.23;;;8.20;;
3683;SDS011;1858;48.716;9.648;2023-08-30T00:31:26;12.90;;;8.80;;
3683;SDS011;1858;48.716;9.648;2023-08-30T00:34:12;11.60;;;7.00;;
3683;SDS011;1858;48.716;9.648;2023-08-30T00:36:59;9.30;;;8.03;;
3683;SDS011;1858;48.716;9.648;2023-08-30T00:39:46;12.37;;;9.20;;
3683;SDS011;1858;48.716;9.648;2023-08-30T00:42:32;10.87;;;8.07;;
3683;SDS011;1858;48.716;9.648;2023-08-30T00:45:19;10.23;;;8.50;;
3683;SDS011;1858;48.716;9.648;2023-08-30T00:48:05;12.23;;;9.10;;
3683;SDS011;1858;48.716;9.648;2023-08-30T00:50:52;11.80;;;9.13;;
3683;SDS011;1858;48.716;9.648;2023-08-30T00:53:39;13.73;;;7.87;;
3683;SDS011;1858;48.716;9.648;2023-08-30T00:56:25;9.83;;;7.90;;
3683;SDS011;1858;48.716;9.648;2023-08-30T00:59:13;11.00;;;8.90;;
3683;SDS011;1858;48.716;9.648;2023-08-30T01:02:00;13.20;;;8.43;;
3683;SDS011;1858;48.716;9.648;2023-08-30T01:04:47;12.50;;;8.27;;
3683;SDS011;1858;48.716;9.648;2023-08-30T01:07:34;19.97;;;10.07;;
3683;SDS011;1858;48.716;9.648;2023-08-30T01:10:22;12.10;;;8.73;;
3683;SDS011;1858;48.716;9.648;2023-08-30T01:13:22;12.23;;;10.10;;
3683;SDS011;1858;48.716;9.648;2023-08-30T01:16:11;11.37;;;9.27;;
3683;SDS011;1858;48.716;9.648;2023-08-30T01:18:59;18.33;;;9.37;;
3683;SDS011;1858;48.716;9.648;2023-08-30T01:22:00;11.90;;;8.97;;
3683;SDS011;1858;48.716;9.648;2023-08-30T01:28:03;13.60;;;9.30;;
3683;SDS011;1858;48.716;9.648;2023-08-30T01:30:50;12.30;;;9.10;;
3683;SDS011;1858;48.716;9.648;2023-08-30T01:33:42;10.23;;;8.33;;
3683;SDS011;1858;48.716;9.648;2023-08-30T01:36:35;10.90;;;8.47;;
3683;SDS011;1858;48.716;9.648;2023-08-30T01:39:17;25.37;;;10.13;;
3683;SDS011;1858;48.716;9.648;2023-08-30T01:42:06;12.57;;;9.70;;
3683;SDS011;1858;48.716;9.648;2023-08-30T01:44:54;13.67;;;9.10;;
3683;SDS011;1858;48.716;9.648;2023-08-30T01:47:43;10.43;;;9.07;;
3683;SDS011;1858;48.716;9.648;2023-08-30T01:50:29;12.70;;;8.97;;
3683;SDS011;1858;48.716;9.648;2023-08-30T01:53:16;15.43;;;9.40;;
3683;SDS011;1858;48.716;9.648;2023-08-30T01:56:04;13.53;;;9.80;;
3683;SDS011;1858;48.716;9.648;2023-08-30T01:58:51;14.90;;;10.70;;
3683;SDS011;1858;48.716;9.648;2023-08-30T02:01:37;9.97;;;8.53;;
3683;SDS011;1858;48.716;9.648;2023-08-30T02:04:24;11.07;;;9.27;;
3683;SDS011;1858;48.716;9.648;2023-08-30T02:07:13;13.20;;;9.33;;
3683;SDS011;1858;48.716;9.648;2023-08-30T02:10:14;10.60;;;9.00;;
3683;SDS011;1858;48.716;9.648;2023-08-30T02:13:04;11.60;;;8.70;;
3683;SDS011;1858;48.716;9.648;2023-08-30T02:15:51;14.67;;;9.33;;
3683;SDS011;1858;48.716;9.648;2023-08-30T02:18:39;10.50;;;8.87;;
3683;SDS011;1858;48.716;9.648;2023-08-30T02:21:27;13.50;;;8.93;;
3683;SDS011;1858;48.716;9.648;2023-08-30T02:24:14;11.50;;;8.77;;
3683;SDS011;1858;48.716;9.648;2023-08-30T02:27:00;16.90;;;9.00;;
3683;SDS011;1858;48.716;9.648;2023-08-30T02:29:47;15.07;;;8.60;;
3683;SDS011;1858;48.716;9.648;2023-08-30T02:32:33;22.67;;;8.50;;
3683;SDS011;1858;48.716;9.648;2023-08-30T02:35:20;20.93;;;9.90;;
3683;SDS011;1858;48.716;9.648;2023-08-30T02:38:06;12.50;;;9.43;;
3683;SDS011;1858;48.716;9.648;2023-08-30T02:40:52;15.50;;;9.17;;
3683;SDS011;1858;48.716;9.648;2023-08-30T02:46:44;11.63;;;9.37;;
3683;SDS011;1858;48.716;9.648;2023-08-30T02:49:30;25.67;;;10.97;;
3683;SDS011;1858;48.716;9.648;2023-08-30T02:52:17;12.17;;;9.73;;
3683;SDS011;1858;48.716;9.648;2023-08-30T02:55:04;14.97;;;10.50;;
3683;SDS011;1858;48.716;9.648;2023-08-30T02:57:51;15.50;;;11.03;;
3683;SDS011;1858;48.716;9.648;2023-08-30T03:00:37;17.70;;;11.63;;
3683;SDS011;1858;48.716;9.648;2023-08-30T03:03:23;16.27;;;11.30;;
3683;SDS011;1858;48.716;9.648;2023-08-30T03:06:10;16.40;;;12.13;;
3683;SDS011;1858;48.716;9.648;2023-08-30T03:08:59;17.73;;;11.53;;
3683;SDS011;1858;48.716;9.648;2023-08-30T03:11:46;13.23;;;10.93;;
3683;SDS011;1858;48.716;9.648;2023-08-30T03:14:33;14.27;;;10.20;;
3683;SDS011;1858;48.716;9.648;2023-08-30T03:20:25;16.27;;;11.80;;
3683;SDS011;1858;48.716;9.648;2023-08-30T03:23:12;17.27;;;10.80;;
3683;SDS011;1858;48.716;9.648;2023-08-30T03:25:59;14.57;;;10.07;;
3683;SDS011;1858;48.716;9.648;2023-08-30T03:28:48;17.93;;;11.73;;
3683;SDS011;1858;48.716;9.648;2023-08-30T03:31:34;13.70;;;10.87;;
3683;SDS011;1858;48.716;9.648;2023-08-30T03:34:20;13.43;;;10.20;;
3683;SDS011;1858;48.716;9.648;2023-08-30T03:37:06;15.37;;;10.70;;
3683;SDS011;1858;48.716;9.648;2023-08-30T03:39:52;16.63;;;11.03;;
3683;SDS011;1858;48.716;9.648;2023-08-30T03:42:39;14.27;;;10.23;;
3683;SDS011;1858;48.716;9.648;2023-08-30T03:45:26;13.63;;;10.90;;
3683;SDS011;1858;48.716;9.648;2023-08-30T03:48:12;12.63;;;9.43;;
3683;SDS011;1858;48.716;9.648;2023-08-30T03:50:58;14.60;;;10.50;;
3683;SDS011;1858;48.716;9.648;2023-08-30T03:53:45;18.13;;;12.17;;
3683;SDS011;1858;48.716;9.648;2023-08-30T03:56:31;15.23;;;11.23;;
3683;SDS011;1858;48.716;9.648;2023-08-30T03:59:18;14.77;;;11.00;;
3683;SDS011;1858;48.716;9.648;2023-08-30T04:02:04;18.50;;;11.60;;
3683;SDS011;1858;48.716;9.648;2023-08-30T04:04:50;15.77;;;11.17;;
3683;SDS011;1858;48.716;9.648;2023-08-30T04:07:37;17.07;;;11.00;;
3683;SDS011;1858;48.716;9.648;2023-08-30T04:10:23;17.87;;;12.33;;
3683;SDS011;1858;48.716;9.648;2023-08-30T04:13:10;12.33;;;8.90;;
3683;SDS011;1858;48.716;9.648;2023-08-30T04:15:56;15.80;;;11.03;;
3683;SDS011;1858;48.716;9.648;2023-08-30T04:18:43;17.30;;;11.43;;
3683;SDS011;1858;48.716;9.648;2023-08-30T04:21:29;17.27;;;10.30;;
3683;SDS011;1858;48.716;9.648;2023-08-30T04:24:16;11.87;;;9.00;;
3683;SDS011;1858;48.716;9.648;2023-08-30T04:27:02;12.10;;;9.23;;
3683;SDS011;1858;48.716;9.648;2023-08-30T04:29:48;13.30;;;9.70;;
3683;SDS011;1858;48.716;9.648;2023-08-30T04:32:35;13.40;;;10.20;;
3683;SDS011;1858;48.716;9.648;2023-08-30T04:35:21;12.70;;;8.70;;
3683;SDS011;1858;48.716;9.648;2023-08-30T04:38:08;9.93;;;8.40;;
3683;SDS011;1858;48.716;9.648;2023-08-30T04:40:57;13.20;;;10.77;;
3683;SDS011;1858;48.716;9.648;2023-08-30T04:44:04;12.07;;;9.43;;
3683;SDS011;1858;48.716;9.648;2023-08-30T04:46:50;12.03;;;8.30;;
3683;SDS011;1858;48.716;9.648;2023-08-30T04:49:37;10.77;;;8.63;;
3683;SDS011;1858;48.716;9.648;2023-08-30T04:52:23;21.43;;;8.57;;
3683;SDS011;1858;48.716;9.648;2023-08-30T04:55:09;9.77;;;8.13;;
3683;SDS011;1858;48.716;9.648;2023-08-30T04:57:56;10.10;;;8.40;;
3683;SDS011;1858;48.716;9.648;2023-08-30T05:00:42;12.53;;;8.87;;
3683;SDS011;1858;48.716;9.648;2023-08-30T05:03:29;12.47;;;8.40;;
3683;SDS011;1858;48.716;9.648;2023-08-30T05:06:15;9.80;;;8.60;;
3683;SDS011;1858;48.716;9.648;2023-08-30T05:09:01;11.77;;;9.30;;
3683;SDS011;1858;48.716;9.648;2023-08-30T05:11:48;12.03;;;8.97;;
3683;SDS011;1858;48.716;9.648;2023-08-30T05:14:34;12.40;;;8.97;;
3683;SDS011;1858;48.716;9.648;2023-08-30T05:17:20;11.30;;;8.30;;
3683;SDS011;1858;48.716;9.648;2023-08-30T05:20:07;13.07;;;8.80;;
3683;SDS011;1858;48.716;9.648;2023-08-30T05:22:54;12.43;;;9.63;;
3683;SDS011;1858;48.716;9.648;2023-08-30T05:28:47;9.40;;;8.27;;
3683;SDS011;1858;48.716;9.648;2023-08-30T05:31:33;11.83;;;8.20;;
3683;SDS011;1858;48.716;9.648;2023-08-30T05:34:19;8.10;;;7.20;;
3683;SDS011;1858;48.716;9.648;2023-08-30T05:37:05;11.17;;;8.23;;
3683;SDS011;1858;48.716;9.648;2023-08-30T05:39:51;10.00;;;7.27;;
3683;SDS011;1858;48.716;9.648;2023-08-30T05:42:38;10.30;;;8.13;;
3683;SDS011;1858;48.716;9.648;2023-08-30T05:45:24;9.90;;;8.07;;
3683;SDS011;1858;48.716;9.648;2023-08-30T05:48:10;10.70;;;8.20;;
3683;SDS011;1858;48.716;9.648;2023-08-30T05:50:57;8.03;;;6.77;;
3683;SDS011;1858;48.716;9.648;2023-08-30T05:53:43;9.93;;;7.37;;
3683;SDS011;1858;48.716;9.648;2023-08-30T05:56:30;9.03;;;7.73;;
3683;SDS011;1858;48.716;9.648;2023-08-30T05:59:16;13.03;;;8.33;;
3683;SDS011;1858;48.716;9.648;2023-08-30T06:02:02;7.80;;;7.00;;
3683;SDS011;1858;48.716;9.648;2023-08-30T06:04:49;10.47;;;9.00;;
3683;SDS011;1858;48.716;9.648;2023-08-30T06:07:35;10.03;;;8.83;;
3683;SDS011;1858;48.716;9.648;2023-08-30T06:10:22;10.00;;;7.47;;
3683;SDS011;1858;48.716;9.648;2023-08-30T06:13:29;10.13;;;8.67;;
3683;SDS011;1858;48.716;9.648;2023-08-30T06:16:15;8.97;;;7.20;;
3683;SDS011;1858;48.716;9.648;2023-08-30T06:19:01;9.93;;;8.23;;
3683;SDS011;1858;48.716;9.648;2023-08-30T06:21:47;7.37;;;6.53;;
3683;SDS011;1858;48.716;9.648;2023-08-30T06:24:33;7.57;;;6.87;;
3683;SDS011;1858;48.716;9.648;2023-08-30T06:27:20;9.10;;;7.00;;
3683;SDS011;1858;48.716;9.648;2023-08-30T06:30:07;7.23;;;6.40;;
3683;SDS011;1858;48.716;9.648;2023-08-30T06:32:55;7.73;;;5.63;;
3683;SDS011;1858;48.716;9.648;2023-08-30T06:35:42;7.23;;;6.27;;
3683;SDS011;1858;48.716;9.648;2023-08-30T06:38:28;6.60;;;5.90;;
3683;SDS011;1858;48.716;9.648;2023-08-30T06:41:14;10.63;;;5.90;;
3683;SDS011;1858;48.716;9.648;2023-08-30T06:44:01;7.40;;;6.40;;
3683;SDS011;1858;48.716;9.648;2023-08-30T06:46:47;6.53;;;5.43;;
3683;SDS011;1858;48.716;9.648;2023-08-30T06:49:34;7.10;;;5.03;;
3683;SDS011;1858;48.716;9.648;2023-08-30T06:52:20;7.10;;;6.03;;
3683;SDS011;1858;48.716;9.648;2023-08-30T06:55:07;9.97;;;5.20;;
3683;SDS011;1858;48.716;9.648;2023-08-30T06:57:54;5.73;;;5.13;;
3683;SDS011;1858;48.716;9.648;2023-08-30T07:03:49;5.13;;;4.63;;
3683;SDS011;1858;48.716;9.648;2023-08-30T07:06:35;6.10;;;5.27;;
3683;SDS011;1858;48.716;9.648;2023-08-30T07:09:21;5.33;;;4.60;;
3683;SDS011;1858;48.716;9.648;2023-08-30T07:12:09;6.83;;;6.23;;
3683;SDS011;1858;48.716;9.648;2023-08-30T07:14:56;5.40;;;4.47;;
3683;SDS011;1858;48.716;9.648;2023-08-30T07:17:42;7.47;;;5.57;;
3683;SDS011;1858;48.716;9.648;2023-08-30T07:20:28;5.40;;;4.90;;
3683;SDS011;1858;48.716;9.648;2023-08-30T07:26:01;5.30;;;4.40;;
3683;SDS011;1858;48.716;9.648;2023-08-30T07:34:19;4.93;;;4.43;;
3683;SDS011;1858;48.716;9.648;2023-08-30T07:37:15;6.87;;;5.30;;
3683;SDS011;1858;48.716;9.648;2023-08-30T07:39:55;6.33;;;5.67;;
3683;SDS011;1858;48.716;9.648;2023-08-30T07:42:41;5.23;;;4.73;;
3683;SDS011;1858;48.716;9.648;2023-08-30T07:45:28;7.53;;;4.70;;
3683;SDS011;1858;48.716;9.648;2023-08-30T07:48:14;5.20;;;4.70;;
3683;SDS011;1858;48.716;9.648;2023-08-30T07:51:00;6.30;;;5.70;;
3683;SDS011;1858;48.716;9.648;2023-08-30T07:53:47;7.53;;;5.33;;
3683;SDS011;1858;48.716;9.648;2023-08-30T07:56:33;6.03;;;4.67;;
3683;SDS011;1858;48.716;9.648;2023-08-30T07:59:20;7.20;;;4.90;;
3683;SDS011;1858;48.716;9.648;2023-08-30T08:02:06;6.10;;;4.80;;
3683;SDS011;1858;48.716;9.648;2023-08-30T08:04:52;6.50;;;5.60;;
3683;SDS011;1858;48.716;9.648;2023-08-30T08:07:39;5.47;;;4.97;;
3683;SDS011;1858;48.716;9.648;2023-08-30T08:10:27;7.37;;;4.87;;
3683;SDS011;1858;48.716;9.648;2023-08-30T08:13:19;5.00;;;4.47;;
3683;SDS011;1858;48.716;9.648;2023-08-30T08:18:51;4.93;;;4.23;;
3683;SDS011;1858;48.716;9.648;2023-08-30T08:21:38;8.43;;;4.60;;
3683;SDS011;1858;48.716;9.648;2023-08-30T08:24:24;4.87;;;4.47;;
3683;SDS011;1858;48.716;9.648;2023-08-30T08:27:10;5.83;;;5.23;;
3683;SDS011;1858;48.716;9.648;2023-08-30T08:33:04;4.93;;;4.43;;
3683;SDS011;1858;48.716;9.648;2023-08-30T08:35:51;5.00;;;4.50;;
3683;SDS011;1858;48.716;9.648;2023-08-30T08:38:37;5.87;;;4.53;;
3683;SDS011;1858;48.716;9.648;2023-08-30T08:41:23;6.87;;;5.33;;
3683;SDS011;1858;48.716;9.648;2023-08-30T08:44:13;3.40;;;3.10;;
3683;SDS011;1858;48.716;9.648;2023-08-30T08:47:00;4.67;;;4.17;;
3683;SDS011;1858;48.716;9.648;2023-08-30T08:49:48;4.70;;;4.20;;
3683;SDS011;1858;48.716;9.648;2023-08-30T08:52:36;4.47;;;4.07;;
3683;SDS011;1858;48.716;9.648;2023-08-30T08:55:22;4.10;;;3.63;;
3683;SDS011;1858;48.716;9.648;2023-08-30T08:58:11;4.40;;;3.50;;
3683;SDS011;1858;48.716;9.648;2023-08-30T09:01:00;4.20;;;3.80;;
3683;SDS011;1858;48.716;9.648;2023-08-30T09:03:46;5.13;;;4.10;;
3683;SDS011;1858;48.716;9.648;2023-08-30T09:06:33;4.13;;;3.70;;
3683;SDS011;1858;48.716;9.648;2023-08-30T09:14:54;5.20;;;4.30;;
3683;SDS011;1858;48.716;9.648;2023-08-30T09:23:16;4.90;;;3.97;;
3683;SDS011;1858;48.716;9.648;2023-08-30T09:26:04;5.13;;;3.87;;
3683;SDS011;1858;48.716;9.648;2023-08-30T09:28:51;5.00;;;4.50;;
3683;SDS011;1858;48.716;9.648;2023-08-30T09:31:38;4.53;;;3.80;;
3683;SDS011;1858;48.716;9.648;2023-08-30T09:34:27;4.33;;;3.60;;
3683;SDS011;1858;48.716;9.648;2023-08-30T09:37:20;4.80;;;4.00;;
3683;SDS011;1858;48.716;9.648;2023-08-30T09:40:08;4.83;;;3.50;;
3683;SDS011;1858;48.716;9.648;2023-08-30T09:42:55;4.00;;;3.37;;
3683;SDS011;1858;48.716;9.648;2023-08-30T09:45:43;5.13;;;3.40;;
3683;SDS011;1858;48.716;9.648;2023-08-30T09:48:30;3.60;;;3.30;;
3683;SDS011;1858;48.716;9.648;2023-08-30T09:51:17;4.40;;;4.00;;
3683;SDS011;1858;48.716;9.648;2023-08-30T09:54:06;4.40;;;3.67;;
3683;SDS011;1858;48.716;9.648;2023-08-30T09:56:55;3.53;;;2.63;;
3683;SDS011;1858;48.716;9.648;2023-08-30T09:59:44;7.13;;;3.40;;
3683;SDS011;1858;48.716;9.648;2023-08-30T10:27:49;3.67;;;2.53;;
3683;SDS011;1858;48.716;9.648;2023-08-30T10:30:37;7.20;;;3.30;;
3683;SDS011;1858;48.716;9.648;2023-08-30T10:33:24;2.50;;;2.07;;
3683;SDS011;1858;48.716;9.648;2023-08-30T10:36:10;5.00;;;3.03;;
3683;SDS011;1858;48.716;9.648;2023-08-30T10:38:56;3.20;;;2.63;;
3683;SDS011;1858;48.716;9.648;2023-08-30T10:41:55;3.03;;;2.43;;
3683;SDS011;1858;48.716;9.648;2023-08-30T10:47:38;4.00;;;2.33;;
3683;SDS011;1858;48.716;9.648;2023-08-30T10:50:28;2.37;;;1.77;;
3683;SDS011;1858;48.716;9.648;2023-08-30T10:53:16;4.43;;;2.50;;
3683;SDS011;1858;48.716;9.648;2023-08-30T10:56:10;3.50;;;2.70;;
3683;SDS011;1858;48.716;9.648;2023-08-30T10:58:57;2.13;;;1.50;;
3683;SDS011;1858;48.716;9.648;2023-08-30T11:01:44;2.73;;;1.50;;
3683;SDS011;1858;48.716;9.648;2023-08-30T11:04:31;3.40;;;1.60;;
3683;SDS011;1858;48.716;9.648;2023-08-30T11:07:18;2.50;;;1.70;;
3683;SDS011;1858;48.716;9.648;2023-08-30T11:10:06;3.30;;;1.40;;
3683;SDS011;1858;48.716;9.648;2023-08-30T11:12:53;1.90;;;1.30;;
3683;SDS011;1858;48.716;9.648;2023-08-30T11:15:41;2.67;;;1.80;;
3683;SDS011;1858;48.716;9.648;2023-08-30T11:18:27;2.23;;;1.37;;
3683;SDS011;1858;48.716;9.648;2023-08-30T11:21:14;2.13;;;1.20;;
3683;SDS011;1858;48.716;9.648;2023-08-30T11:24:01;2.10;;;1.33;;
3683;SDS011;1858;48.716;9.648;2023-08-30T11:26:52;3.60;;;1.43;;
3683;SDS011;1858;48.716;9.648;2023-08-30T11:29:40;2.13;;;1.50;;
3683;SDS011;1858;48.716;9.648;2023-08-30T11:32:27;4.43;;;1.43;;
3683;SDS011;1858;48.716;9.648;2023-08-30T11:35:13;2.20;;;1.50;;
3683;SDS011;1858;48.716;9.648;2023-08-30T11:38:01;2.67;;;1.53;;
3683;SDS011;1858;48.716;9.648;2023-08-30T11:40:48;1.93;;;1.20;;
3683;SDS011;1858;48.716;9.648;2023-08-30T11:43:35;2.77;;;1.40;;
3683;SDS011;1858;48.716;9.648;2023-08-30T11:46:22;2.27;;;1.37;;
3683;SDS011;1858;48.716;9.648;2023-08-30T11:49:08;2.63;;;1.30;;
3683;SDS011;1858;48.716;9.648;2023-08-30T11:51:55;2.83;;;1.30;;
3683;SDS011;1858;48.716;9.648;2023-08-30T11:54:43;1.60;;;0.97;;
3683;SDS011;1858;48.716;9.648;2023-08-30T11:57:32;2.13;;;1.10;;
3683;SDS011;1858;48.716;9.648;2023-08-30T12:00:23;1.70;;;1.00;;
3683;SDS011;1858;48.716;9.648;2023-08-30T12:03:13;1.87;;;1.03;;
3683;SDS011;1858;48.716;9.648;2023-08-30T12:06:01;3.50;;;1.30;;
3683;SDS011;1858;48.716;9.648;2023-08-30T12:08:47;2.47;;;1.70;;
3683;SDS011;1858;48.716;9.648;2023-08-30T12:11:34;2.63;;;0.90;;
3683;SDS011;1858;48.716;9.648;2023-08-30T12:14:20;2.00;;;1.30;;
3683;SDS011;1858;48.716;9.648;2023-08-30T12:17:08;2.10;;;1.20;;
3683;SDS011;1858;48.716;9.648;2023-08-30T12:19:56;1.87;;;1.20;;
3683;SDS011;1858;48.716;9.648;2023-08-30T12:22:43;2.20;;;1.40;;
3683;SDS011;1858;48.716;9.648;2023-08-30T12:25:29;2.07;;;1.30;;
3683;SDS011;1858;48.716;9.648;2023-08-30T12:28:17;2.40;;;1.20;;
3683;SDS011;1858;48.716;9.648;2023-08-30T12:31:03;2.43;;;0.93;;
3683;SDS011;1858;48.716;9.648;2023-08-30T12:33:50;2.83;;;1.13;;
3683;SDS011;1858;48.716;9.648;2023-08-30T12:36:37;1.90;;;1.03;;
3683;SDS011;1858;48.716;9.648;2023-08-30T12:39:23;2.00;;;1.20;;
3683;SDS011;1858;48.716;9.648;2023-08-30T12:42:09;4.43;;;1.23;;
3683;SDS011;1858;48.716;9.648;2023-08-30T12:44:55;1.70;;;1.00;;
3683;SDS011;1858;48.716;9.648;2023-08-30T12:47:41;2.43;;;0.90;;
3683;SDS011;1858;48.716;9.648;2023-08-30T12:50:28;4.00;;;1.00;;
3683;SDS011;1858;48.716;9.648;2023-08-30T12:53:14;2.10;;;1.17;;
3683;SDS011;1858;48.716;9.648;2023-08-30T12:56:03;1.77;;;1.17;;
3683;SDS011;1858;48.716;9.648;2023-08-30T12:58:50;3.63;;;1.13;;
3683;SDS011;1858;48.716;9.648;2023-08-30T13:01:37;1.90;;;1.20;;
3683;SDS011;1858;48.716;9.648;2023-08-30T13:04:23;2.00;;;0.83;;
3683;SDS011;1858;48.716;9.648;2023-08-30T13:07:09;1.93;;;0.83;;
3683;SDS011;1858;48.716;9.648;2023-08-30T13:09:56;2.30;;;1.03;;
3683;SDS011;1858;48.716;9.648;2023-08-30T13:12:42;1.83;;;1.00;;
3683;SDS011;1858;48.716;9.648;2023-08-30T13:15:29;1.67;;;0.90;;
3683;SDS011;1858;48.716;9.648;2023-08-30T13:18:15;2.53;;;1.00;;
3683;SDS011;1858;48.716;9.648;2023-08-30T13:21:02;1.90;;;1.00;;
3683;SDS011;1858;48.716;9.648;2023-08-30T13:23:50;2.80;;;1.00;;
3683;SDS011;1858;48.716;9.648;2023-08-30T13:26:36;1.70;;;0.90;;
3683;SDS011;1858;48.716;9.648;2023-08-30T13:29:22;2.77;;;1.50;;
3683;SDS011;1858;48.716;9.648;2023-08-30T13:32:09;3.97;;;1.60;;
3683;SDS011;1858;48.716;9.648;2023-08-30T13:34:56;1.90;;;1.00;;
3683;SDS011;1858;48.716;9.648;2023-08-30T13:37:42;2.87;;;1.70;;
3683;SDS011;1858;48.716;9.648;2023-08-30T13:40:28;2.20;;;1.23;;
3683;SDS011;1858;48.716;9.648;2023-08-30T13:43:15;3.40;;;1.57;;
3683;SDS011;1858;48.716;9.648;2023-08-30T13:46:02;2.67;;;1.10;;
3683;SDS011;1858;48.716;9.648;2023-08-30T13:48:49;2.47;;;1.40;;
3683;SDS011;1858;48.716;9.648;2023-08-30T13:51:35;2.33;;;1.17;;
3683;SDS011;1858;48.716;9.648;2023-08-30T13:54:21;2.40;;;1.40;;
3683;SDS011;1858;48.716;9.648;2023-08-30T13:57:08;2.50;;;1.63;;
3683;SDS011;1858;48.716;9.648;2023-08-30T13:59:54;2.40;;;1.50;;
3683;SDS011;1858;48.716;9.648;2023-08-30T14:02:40;2.17;;;1.43;;
3683;SDS011;1858;48.716;9.648;2023-08-30T14:05:27;3.20;;;1.50;;
3683;SDS011;1858;48.716;9.648;2023-08-30T14:08:13;2.30;;;1.47;;
3683;SDS011;1858;48.716;9.648;2023-08-30T14:10:59;1.60;;;1.10;;
3683;SDS011;1858;48.716;9.648;2023-08-30T14:13:45;2.63;;;1.60;;
3683;SDS011;1858;48.716;9.648;2023-08-30T14:16:32;2.60;;;1.47;;
3683;SDS011;1858;48.716;9.648;2023-08-30T14:19:18;3.40;;;1.53;;
3683;SDS011;1858;48.716;9.648;2023-08-30T14:22:05;2.13;;;1.00;;
3683;SDS011;1858;48.716;9.648;2023-08-30T14:24:51;2.37;;;1.20;;
3683;SDS011;1858;48.716;9.648;2023-08-30T14:27:38;1.67;;;0.93;;
3683;SDS011;1858;48.716;9.648;2023-08-30T14:30:25;1.70;;;1.20;;
3683;SDS011;1858;48.716;9.648;2023-08-30T14:33:11;2.90;;;1.43;;
3683;SDS011;1858;48.716;9.648;2023-08-30T14:35:58;2.40;;;1.60;;
3683;SDS011;1858;48.716;9.648;2023-08-30T14:38:46;2.50;;;1.30;;
3683;SDS011;1858;48.716;9.648;2023-08-30T14:41:32;1.70;;;0.90;;
3683;SDS011;1858;48.716;9.648;2023-08-30T14:44:20;1.83;;;1.00;;
3683;SDS011;1858;48.716;9.648;2023-08-30T14:47:06;2.03;;;1.10;;
3683;SDS011;1858;48.716;9.648;2023-08-30T14:49:55;2.10;;;1.33;;
3683;SDS011;1858;48.716;9.648;2023-08-30T14:52:41;1.47;;;0.90;;
3683;SDS011;1858;48.716;9.648;2023-08-30T14:55:28;1.90;;;1.17;;
3683;SDS011;1858;48.716;9.648;2023-08-30T14:58:15;3.30;;;1.50;;
3683;SDS011;1858;48.716;9.648;2023-08-30T15:01:01;2.03;;;1.00;;
3683;SDS011;1858;48.716;9.648;2023-08-30T15:03:47;2.00;;;1.00;;
3683;SDS011;1858;48.716;9.648;2023-08-30T15:06:34;1.50;;;1.00;;
3683;SDS011;1858;48.716;9.648;2023-08-30T15:09:21;1.70;;;1.13;;
3683;SDS011;1858;48.716;9.648;2023-08-30T15:12:07;2.30;;;1.43;;
3683;SDS011;1858;48.716;9.648;2023-08-30T15:14:54;2.13;;;1.00;;
3683;SDS011;1858;48.716;9.648;2023-08-30T15:17:40;1.90;;;0.90;;
3683;SDS011;1858;48.716;9.648;2023-08-30T15:20:27;1.60;;;1.00;;
3683;SDS011;1858;48.716;9.648;2023-08-30T15:23:13;2.00;;;0.93;;
3683;SDS011;1858;48.716;9.648;2023-08-30T15:26:03;1.53;;;0.87;;
3683;SDS011;1858;48.716;9.648;2023-08-30T15:28:50;1.87;;;0.83;;
3683;SDS011;1858;48.716;9.648;2023-08-30T15:31:38;3.27;;;1.07;;
3683;SDS011;1858;48.716;9.648;2023-08-30T15:34:28;4.40;;;1.00;;
3683;SDS011;1858;48.716;9.648;2023-08-30T15:37:14;2.13;;;1.10;;
3683;SDS011;1858;48.716;9.648;2023-08-30T15:40:03;2.33;;;1.10;;
3683;SDS011;1858;48.716;9.648;2023-08-30T15:42:50;1.70;;;0.90;;
3683;SDS011;1858;48.716;9.648;2023-08-30T15:45:36;3.83;;;1.70;;
3683;SDS011;1858;48.716;9.648;2023-08-30T15:48:24;1.90;;;1.17;;
3683;SDS011;1858;48.716;9.648;2023-08-30T15:51:12;2.20;;;1.47;;
3683;SDS011;1858;48.716;9.648;2023-08-30T15:53:58;1.63;;;1.17;;
3683;SDS011;1858;48.716;9.648;2023-08-30T15:56:46;2.50;;;1.50;;
3683;SDS011;1858;48.716;9.648;2023-08-30T15:59:32;1.80;;;1.20;;
3683;SDS011;1858;48.716;9.648;2023-08-30T16:02:19;1.90;;;1.00;;
3683;SDS011;1858;48.716;9.648;2023-08-30T16:05:05;2.00;;;1.30;;
3683;SDS011;1858;48.716;9.648;2023-08-30T16:07:51;2.10;;;1.40;;
3683;SDS011;1858;48.716;9.648;2023-08-30T16:10:37;1.53;;;0.93;;
3683;SDS011;1858;48.716;9.648;2023-08-30T16:13:24;2.97;;;1.00;;
3683;SDS011;1858;48.716;9.648;2023-08-30T16:16:11;2.37;;;1.20;;
3683;SDS011;1858;48.716;9.648;2023-08-30T16:18:58;2.37;;;1.53;;
3683;SDS011;1858;48.716;9.648;2023-08-30T16:21:46;2.57;;;1.60;;
3683;SDS011;1858;48.716;9.648;2023-08-30T16:24:34;2.43;;;1.80;;
3683;SDS011;1858;48.716;9.648;2023-08-30T16:27:20;4.53;;;1.93;;
3683;SDS011;1858;48.716;9.648;2023-08-30T16:30:07;2.47;;;1.60;;
3683;SDS011;1858;48.716;9.648;2023-08-30T16:32:53;2.70;;;1.53;;
3683;SDS011;1858;48.716;9.648;2023-08-30T16:35:40;2.37;;;1.40;;
3683;SDS011;1858;48.716;9.648;2023-08-30T16:38:26;2.50;;;1.47;;
3683;SDS011;1858;48.716;9.648;2023-08-30T16:41:13;1.90;;;1.40;;
3683;SDS011;1858;48.716;9.648;2023-08-30T16:44:00;2.50;;;1.63;;
3683;SDS011;1858;48.716;9.648;2023-08-30T16:46:47;2.40;;;1.73;;
3683;SDS011;1858;48.716;9.648;2023-08-30T16:49:33;2.10;;;1.20;;
3683;SDS011;1858;48.716;9.648;2023-08-30T16:52:20;1.73;;;1.50;;
3683;SDS011;1858;48.716;9.648;2023-08-30T16:55:07;4.20;;;1.90;;
3683;SDS011;1858;48.716;9.648;2023-08-30T16:57:53;2.70;;;1.67;;
3683;SDS011;1858;48.716;9.648;2023-08-30T17:00:40;2.67;;;1.90;;
3683;SDS011;1858;48.716;9.648;2023-08-30T17:03:26;2.40;;;1.50;;
3683;SDS011;1858;48.716;9.648;2023-08-30T17:06:13;2.53;;;1.80;;
3683;SDS011;1858;48.716;9.648;2023-08-30T17:09:02;3.20;;;2.10;;
3683;SDS011;1858;48.716;9.648;2023-08-30T17:11:49;3.27;;;1.50;;
3683;SDS011;1858;48.716;9.648;2023-08-30T17:14:35;2.77;;;1.90;;
3683;SDS011;1858;48.716;9.648;2023-08-30T17:17:21;2.83;;;1.83;;
3683;SDS011;1858;48.716;9.648;2023-08-30T17:20:08;2.17;;;1.63;;
3683;SDS011;1858;48.716;9.648;2023-08-30T17:22:55;2.20;;;1.50;;
3683;SDS011;1858;48.716;9.648;2023-08-30T17:25:41;2.60;;;1.57;;
3683;SDS011;1858;48.716;9.648;2023-08-30T17:28:28;3.80;;;3.47;;
3683;SDS011;1858;48.716;9.648;2023-08-30T17:31:14;3.13;;;1.90;;
3683;SDS011;1858;48.716;9.648;2023-08-30T17:34:01;4.03;;;2.13;;
3683;SDS011;1858;48.716;9.648;2023-08-30T17:36:48;4.90;;;1.37;;
3683;SDS011;1858;48.716;9.648;2023-08-30T17:39:35;2.47;;;1.67;;
3683;SDS011;1858;48.716;9.648;2023-08-30T17:42:23;3.17;;;1.60;;
3683;SDS011;1858;48.716;9.648;2023-08-30T17:45:10;2.23;;;1.60;;
3683;SDS011;1858;48.716;9.648;2023-08-30T17:47:56;2.60;;;1.70;;
3683;SDS011;1858;48.716;9.648;2023-08-30T17:50:44;3.17;;;1.60;;
3683;SDS011;1858;48.716;9.648;2023-08-30T17:53:30;4.47;;;2.10;;
3683;SDS011;1858;48.716;9.648;2023-08-30T17:56:17;2.10;;;1.57;;
3683;SDS011;1858;48.716;9.648;2023-08-30T17:59:05;2.67;;;2.00;;
3683;SDS011;1858;48.716;9.648;2023-08-30T18:01:51;3.27;;;1.57;;
3683;SDS011;1858;48.716;9.648;2023-08-30T18:04:38;2.70;;;1.83;;
3683;SDS011;1858;48.716;9.648;2023-08-30T18:07:24;2.70;;;1.80;;
3683;SDS011;1858;48.716;9.648;2023-08-30T18:10:11;2.40;;;1.80;;
3683;SDS011;1858;48.716;9.648;2023-08-30T18:12:57;2.33;;;1.93;;
3683;SDS011;1858;48.716;9.648;2023-08-30T18:15:46;2.30;;;1.63;;
3683;SDS011;1858;48.716;9.648;2023-08-30T18:18:33;2.93;;;1.77;;
3683;SDS011;1858;48.716;9.648;2023-08-30T18:21:19;5.70;;;2.63;;
3683;SDS011;1858;48.716;9.648;2023-08-30T18:24:12;2.47;;;1.83;;